Time;durP1;ratioP1;P1;durP2;ratioP2;P2;SDS_P1;SDS_P2;PMS_P1;PMS_P2;Temp;Humidity;BMP_temperature;BMP_pressure;BME280_temperature;BME280_humidity;BME280_pressure;Samples;Min_cycle;Max_cycle;Signal;HPM_P1;HPM_P2
2022/07/05 00:00:41;;;;;;;9.88;7.70;;;;;;;23.77;55.58;93531.69;5827027;24;20108;-93
2022/07/05 00:04:07;;;;;;;;;;;;;;;;;;;;;
2022/07/05 00:07:32;;;;;;;;;;;;;;;;;;;;;
2022/07/05 00:10:38;;;;;;;;;;;;;;;;;;;;;
2022/07/05 00:17:35;;;;;;;9.37;6.50;;;;;;;23.79;55.43;93529.13;5827216;24;20121;-93
2022/07/05 00:20:20;;;;;;;7.43;6.43;;;;;;;23.76;55.51;93533.69;5896147;24;20520;-94
2022/07/05 00:23:40;;;;;;;9.00;6.65;;;;;;;23.76;55.72;93530.19;5860749;24;20070;-94
2022/07/05 00:26:45;;;;;;;;;;;;;;;;;;;;;
2022/07/05 00:29:44;;;;;;;;;;;;;;;;;;;;;
2022/07/05 00:32:45;;;;;;;9.13;6.50;;;;;;;23.76;55.65;93511.63;5821327;24;20339;-94
2022/07/05 00:35:31;;;;;;;;;;;;;;;;;;;;;
2022/07/05 00:38:29;;;;;;;;;;;;;;;;;;;;;
2022/07/05 00:41:16;;;;;;;6.88;5.88;;;;;;;23.74;55.41;93513.44;5824929;24;21131;-94
2022/07/05 00:44:38;;;;;;;8.05;6.22;;;;;;;23.74;55.27;93513.44;5821551;24;20121;-93
2022/07/05 00:53:38;;;;;;;;;;;;;;;;;;;;;
2022/07/05 00:57:03;;;;;;;;;;;;;;;;;;;;;
2022/07/05 01:00:24;;;;;;;7.95;6.45;;;;;;;23.74;55.71;93521.72;5742787;24;20193;-95
2022/07/05 01:03:13;;;;;;;7.50;6.18;;;;;;;23.74;55.61;93518.97;5806301;24;20031;-94
2022/07/05 01:05:50;;;;;;;6.97;5.65;;;;;;;23.73;55.70;93518.22;5808763;24;20082;-93
2022/07/05 01:08:49;;;;;;;7.30;5.80;;;;;;;23.72;55.53;93513.25;5777556;24;20097;-94
2022/07/05 01:11:36;;;;;;;8.15;6.22;;;;;;;23.72;55.62;93511.22;5839079;24;20020;-94
2022/07/05 01:17:18;;;;;;;6.70;5.13;;;;;;;23.72;55.51;93507.72;5802765;24;20135;-93
2022/07/05 01:20:32;;;;;;;7.25;5.07;;;;;;;23.72;55.59;93513.25;5817637;24;20337;-94
2022/07/05 01:23:27;;;;;;;7.78;5.80;;;;;;;23.73;55.63;93514.72;5809057;24;20096;-93
2022/07/05 01:26:24;;;;;;;6.88;5.05;;;;;;;23.71;55.66;93514.53;5756905;24;20682;-93
2022/07/05 01:29:21;;;;;;;6.43;5.55;;;;;;;23.70;55.36;93502.00;5905887;24;20398;-93
2022/07/05 01:32:36;;;;;;;6.60;5.15;;;;;;;23.70;55.50;93511.03;5924682;24;20465;-93
2022/07/05 01:35:59;;;;;;;5.70;4.88;;;;;;;23.71;55.54;93517.28;5834021;24;20021;-94
2022/07/05 01:38:45;;;;;;;5.82;5.07;;;;;;;23.71;55.43;93515.25;5804076;24;20208;-93
2022/07/05 01:41:29;;;;;;;6.07;5.18;;;;;;;23.72;55.56;93518.75;5805157;24;20023;-94
2022/07/05 01:44:33;;;;;;;;;;;;;;;;;;;;;
2022/07/05 01:47:23;;;;;;;5.72;4.68;;;;;;;23.70;55.73;93516.53;5826515;24;20494;-94
2022/07/05 01:49:54;;;;;;;6.97;5.15;;;;;;;23.71;55.49;93514.53;5808313;24;20026;-93
2022/07/05 01:52:36;;;;;;;5.53;4.82;;;;;;;23.70;55.49;93513.03;5833212;24;20029;-93
2022/07/05 01:55:20;;;;;;;5.78;4.85;;;;;;;23.70;55.69;93515.81;5876204;24;20096;-93
2022/07/05 01:58:00;;;;;;;4.95;4.45;;;;;;;23.69;55.54;93520.59;5912805;23;20031;-94
2022/07/05 02:00:26;;;;;;;5.55;4.60;;;;;;;23.70;55.55;93532.38;5927691;23;20281;-93
2022/07/05 02:02:52;;;;;;;6.63;4.53;;;;;;;23.70;55.73;93535.13;5929920;24;20028;-94
2022/07/05 02:05:20;;;;;;;6.55;5.07;;;;;;;23.70;55.66;93543.41;5952053;23;20016;-93
2022/07/05 02:07:50;;;;;;;5.28;4.50;;;;;;;23.70;55.44;93543.41;5914849;23;20103;-93
2022/07/05 02:10:16;;;;;;;5.20;4.57;;;;;;;23.71;55.50;93536.59;6059161;23;20021;-93
2022/07/05 02:12:43;;;;;;;6.45;4.70;;;;;;;23.71;55.50;93547.66;6071159;23;20060;-93
2022/07/05 02:15:09;;;;;;;7.50;5.25;;;;;;;23.71;55.47;93553.91;6035479;23;20021;-93
2022/07/05 02:17:37;;;;;;;5.00;4.50;;;;;;;23.70;55.73;93544.16;6071715;23;20025;-93
2022/07/05 02:20:06;;;;;;;5.38;4.35;;;;;;;23.68;55.50;93551.47;6069955;23;20022;-92
2022/07/05 02:22:33;;;;;;;5.18;4.13;;;;;;;23.69;55.55;93566.75;6056967;23;20053;-93
2022/07/05 02:25:04;;;;;;;4.70;4.20;;;;;;;23.69;55.46;93558.47;6040528;23;20072;-93
2022/07/05 02:27:30;;;;;;;4.78;3.95;;;;;;;23.68;55.64;93568.78;6076773;23;20022;-94
2022/07/05 02:29:57;;;;;;;4.70;4.20;;;;;;;23.69;55.71;93570.25;6076309;23;20037;-92
2022/07/05 02:32:32;;;;;;;4.40;3.80;;;;;;;23.69;55.67;93577.81;6107878;23;20022;-93
2022/07/05 02:34:59;;;;;;;5.30;4.28;;;;;;;23.66;55.77;93571.34;6060144;23;20041;-93
2022/07/05 02:37:25;;;;;;;4.55;3.47;;;;;;;23.68;55.61;93560.50;6024702;23;20035;-92
2022/07/05 02:39:52;;;;;;;5.32;4.18;;;;;;;23.68;55.65;93573.56;5990048;23;20069;-93
2022/07/05 02:42:17;;;;;;;5.38;4.50;;;;;;;23.68;55.67;93551.47;6012773;23;20383;-92
2022/07/05 02:44:43;;;;;;;4.85;3.92;;;;;;;23.67;55.72;93564.53;5990762;23;20108;-92
2022/07/05 02:47:11;;;;;;;5.10;4.03;;;;;;;23.66;55.78;93570.59;6013307;23;20046;-92
2022/07/05 02:49:38;;;;;;;4.30;3.50;;;;;;;23.65;55.91;93578.16;5990730;23;20039;-92
2022/07/05 02:52:08;;;;;;;3.80;3.30;;;;;;;23.65;55.77;93586.44;6000263;23;20023;-93
2022/07/05 02:54:35;;;;;;;4.65;3.72;;;;;;;23.66;55.46;93584.41;5991472;23;20098;-93
2022/07/05 02:57:09;;;;;;;4.50;3.78;;;;;;;23.64;55.83;93582.19;6015521;23;20022;-94
2022/07/05 02:59:34;;;;;;;4.70;3.78;;;;;;;23.65;55.76;93585.69;6001691;23;20019;-93
2022/07/05 03:02:01;;;;;;;6.03;3.97;;;;;;;23.65;55.80;93591.19;5980521;23;20023;-93
2022/07/05 03:04:28;;;;;;;7.00;3.88;;;;;;;23.66;55.69;93592.69;5957516;23;20038;-93
2022/07/05 03:06:55;;;;;;;5.13;3.33;;;;;;;23.63;55.66;93594.50;5999650;23;20026;-93
2022/07/05 03:09:20;;;;;;;4.50;3.40;;;;;;;23.64;55.70;93593.22;5984300;23;20027;-93
2022/07/05 03:11:46;;;;;;;4.45;3.45;;;;;;;23.63;55.87;93593.75;5991304;23;20064;-92
2022/07/05 03:14:12;;;;;;;4.30;3.58;;;;;;;23.65;55.86;93599.47;5986996;23;20024;-93
2022/07/05 03:16:38;;;;;;;4.20;3.50;;;;;;;23.63;55.84;93588.25;6010827;23;20048;-93
2022/07/05 03:19:04;;;;;;;4.45;3.63;;;;;;;23.65;55.84;93596.72;5984591;23;20512;-93
2022/07/05 03:21:29;;;;;;;5.03;3.50;;;;;;;23.63;55.88;93585.47;5967525;23;20024;-93
2022/07/05 03:23:56;;;;;;;4.35;3.50;;;;;;;23.63;55.91;93591.00;5981367;23;20023;-92
2022/07/05 03:26:22;;;;;;;3.55;3.25;;;;;;;23.61;55.66;93591.53;5996156;23;20023;-94
2022/07/05 03:28:49;;;;;;;3.65;2.92;;;;;;;23.60;55.81;93590.06;6063056;23;20387;-92
2022/07/05 03:31:16;;;;;;;4.80;3.22;;;;;;;23.62;55.56;93592.28;6035541;23;20350;-93
2022/07/05 03:33:42;;;;;;;5.25;3.67;;;;;;;23.60;55.60;93587.31;6056773;23;20113;-94
2022/07/05 03:36:08;;;;;;;5.45;3.78;;;;;;;23.60;55.82;93590.06;6010103;23;20025;-93
2022/07/05 03:38:34;;;;;;;3.42;2.92;;;;;;;23.60;55.83;93595.59;6005440;23;20087;-92
2022/07/05 03:41:03;;;;;;;3.45;2.97;;;;;;;23.61;55.75;93588.78;5935635;23;20023;-91
2022/07/05 03:43:33;;;;;;;4.97;3.28;;;;;;;23.61;55.85;93602.59;5985578;23;20039;-92
2022/07/05 03:45:58;;;;;;;10.43;9.37;;;;;;;23.60;55.92;93592.81;5984824;23;20031;-93
2022/07/05 03:48:24;;;;;;;4.30;3.90;;;;;;;23.61;55.90;93591.53;5985107;23;20459;-90
2022/07/05 03:50:49;;;;;;;6.20;3.38;;;;;;;23.61;55.53;93599.81;5983108;23;20154;-93
2022/07/05 03:53:15;;;;;;;14.88;7.13;;;;;;;23.69;55.73;93608.91;5982660;23;20023;-90
2022/07/05 03:55:41;;;;;;;65.28;34.08;;;;;;;23.69;55.74;93605.41;5983139;23;20023;-90
2022/07/05 03:58:07;;;;;;;4.10;3.13;;;;;;;23.64;55.61;93607.03;5980928;23;20075;-89
2022/07/05 04:00:33;;;;;;;3.47;3.17;;;;;;;23.66;55.50;93617.53;5962690;23;20027;-92
2022/07/05 04:03:00;;;;;;;3.90;3.20;;;;;;;23.71;55.44;93622.16;5983989;23;20023;-91
2022/07/05 04:05:26;;;;;;;6.18;4.10;;;;;;;23.62;55.51;93626.16;5975101;23;20020;-93
2022/07/05 04:07:53;;;;;;;7.68;3.92;;;;;;;23.51;55.55;93620.88;5954983;23;20119;-91
2022/07/05 04:10:19;;;;;;;3.92;3.38;;;;;;;23.42;55.10;93619.31;6007520;23;20022;-92
2022/07/05 04:12:48;;;;;;;3.70;3.22;;;;;;;23.32;55.48;93615.56;6065768;23;20119;-93
2022/07/05 04:15:13;;;;;;;3.97;3.03;;;;;;;23.32;55.38;93621.09;6098584;23;20104;-92
2022/07/05 04:17:54;;;;;;;3.67;2.90;;;;;;;23.27;55.45;93613.69;6075226;23;20017;-92
2022/07/05 04:20:24;;;;;;;4.80;2.97;;;;;;;23.21;55.56;93616.56;6098357;23;20017;-90
2022/07/05 04:22:55;;;;;;;4.43;2.92;;;;;;;23.27;55.70;93627.47;6101159;23;20830;-92
2022/07/05 04:25:41;;;;;;;3.30;3.00;;;;;;;23.22;55.94;93628.34;6075823;23;20018;-92
2022/07/05 04:28:14;;;;;;;3.75;3.45;;;;;;;23.20;55.99;93628.88;6089296;23;20840;-92
2022/07/05 04:30:41;;;;;;;18.48;16.55;;;;;;;23.16;55.98;93622.25;6062369;23;20019;-94
2022/07/05 04:33:15;;;;;;;8.40;7.55;;;;;;;23.18;56.10;93627.94;6048686;23;20026;-92
2022/07/05 04:35:42;;;;;;;4.85;4.30;;;;;;;23.12;56.68;93630.09;6039726;23;20106;-93
2022/07/05 04:38:10;;;;;;;9.48;8.45;;;;;;;23.16;56.24;93633.28;6002789;23;20474;-91
2022/07/05 04:40:37;;;;;;;9.23;6.78;;;;;;;23.23;56.44;93632.59;6066186;23;20104;-92
2022/07/05 04:43:03;;;;;;;40.20;30.88;;;;;;;23.19;56.32;93635.66;6005911;23;20249;-90
2022/07/05 04:45:36;;;;;;;13.05;11.00;;;;;;;23.17;56.20;93643.00;5980367;23;20024;-91
2022/07/05 04:48:05;;;;;;;72.22;57.42;;;;;;;23.13;56.39;93640.59;5981048;23;20073;-94
2022/07/05 04:50:31;;;;;;;7.18;5.35;;;;;;;23.18;55.77;93636.22;6016386;23;20479;-92
2022/07/05 04:53:00;;;;;;;9.57;4.75;;;;;;;23.09;56.08;93642.19;5999577;23;20107;-92
2022/07/05 04:55:25;;;;;;;21.67;5.07;;;;;;;23.02;56.39;93640.09;5969325;23;20028;-93
2022/07/05 04:58:03;;;;;;;12.55;4.35;;;;;;;23.04;56.18;93643.06;5962167;23;20062;-96
2022/07/05 05:00:31;;;;;;;15.68;9.05;;;;;;;22.97;56.33;93640.97;6079257;23;20136;-92
2022/07/05 05:03:04;;;;;;;31.55;10.43;;;;;;;22.95;56.46;93644.25;6161261;23;20392;-92
2022/07/05 05:05:30;;;;;;;19.00;10.00;;;;;;;23.04;56.12;93641.03;6185794;23;20017;-91
2022/07/05 05:08:41;;;;;;;23.20;10.90;;;;;;;22.97;56.41;93649.97;6179048;23;20023;-95
2022/07/05 05:13:45;;;;;;;42.50;15.25;;;;;;;22.97;56.52;93652.72;6192254;22;20020;-94
2022/07/05 05:16:35;;;;;;;37.75;15.55;;;;;;;23.00;56.46;93648.16;6101743;23;20025;-94
2022/07/05 05:19:14;;;;;;;61.60;18.73;;;;;;;22.90;56.44;93654.16;6045092;23;20030;-93
2022/07/05 05:21:40;;;;;;;57.83;17.48;;;;;;;22.87;56.43;93652.44;6100767;23;20029;-92
2022/07/05 05:24:06;;;;;;;42.58;14.85;;;;;;;22.89;56.35;93649.16;6099531;23;20017;-93
2022/07/05 05:26:31;;;;;;;49.97;21.80;;;;;;;22.87;56.54;93648.94;6100848;23;20508;-92
2022/07/05 05:29:03;;;;;;;57.80;28.75;;;;;;;22.82;56.63;93642.28;6103421;23;20059;-93
2022/07/05 05:31:30;;;;;;;95.72;35.90;;;;;;;22.81;56.62;93651.09;6124460;23;20017;-90
2022/07/05 05:33:55;;;;;;;83.22;30.48;;;;;;;22.79;56.65;93657.13;6124760;23;20022;-92
2022/07/05 05:36:21;;;;;;;77.88;27.13;;;;;;;22.80;56.67;93649.59;6098324;23;20160;-90
2022/07/05 05:38:46;;;;;;;64.53;26.13;;;;;;;22.77;56.72;93650.63;6095718;23;20021;-90
2022/07/05 05:41:12;;;;;;;48.67;20.52;;;;;;;22.78;56.66;93660.41;6101962;23;20017;-93
2022/07/05 05:43:43;;;;;;;61.03;26.35;;;;;;;22.80;56.48;93647.59;6102080;23;20072;-92
2022/07/05 05:46:09;;;;;;;53.47;22.92;;;;;;;22.79;56.60;93646.09;6106652;23;20055;-94
2022/07/05 05:48:34;;;;;;;48.65;22.38;;;;;;;22.79;56.48;93657.13;6164727;23;20402;-93
2022/07/05 05:51:01;;;;;;;44.58;20.77;;;;;;;22.76;56.73;93652.66;6195993;23;20008;-93
2022/07/05 05:53:33;;;;;;;41.50;19.40;;;;;;;22.78;56.95;93644.63;6144088;23;20021;-94
2022/07/05 05:56:02;;;;;;;89.47;43.97;;;;;;;22.73;56.67;93653.75;6121521;23;20017;-91
2022/07/05 05:58:27;;;;;;;126.65;55.67;;;;;;;22.77;56.56;93654.16;6129869;23;20025;-90
2022/07/05 06:00:56;;;;;;;78.35;35.17;;;;;;;22.78;56.48;93652.16;6109463;23;20025;-93
2022/07/05 06:03:23;;;;;;;64.80;24.77;;;;;;;22.64;57.52;93658.94;6107352;23;20025;-91
2022/07/05 06:05:48;;;;;;;124.28;69.72;;;;;;;22.62;57.13;93659.47;6107746;23;20035;-91
2022/07/05 06:08:14;;;;;;;68.55;38.55;;;;;;;22.55;57.30;93663.59;6108399;23;20561;-89
2022/07/05 06:10:40;;;;;;;82.93;34.45;;;;;;;22.57;57.00;93660.31;6089554;23;20707;-90
2022/07/05 06:13:08;;;;;;;20.92;10.90;;;;;;;22.58;57.16;93665.31;6129036;23;20531;-92
2022/07/05 06:15:36;;;;;;;20.58;11.23;;;;;;;22.62;57.04;93659.47;6042122;23;20038;-94
2022/07/05 06:18:22;;;;;;;14.55;9.50;;;;;;;22.63;56.73;93662.97;6023304;23;20046;-94
2022/07/05 06:20:48;;;;;;;14.73;8.95;;;;;;;22.53;57.15;93655.13;6049250;23;20025;-92
2022/07/05 06:23:17;;;;;;;16.92;7.57;;;;;;;22.57;57.31;93660.31;6070487;23;20056;-89
2022/07/05 06:25:43;;;;;;;13.45;6.95;;;;;;;22.53;57.30;93668.16;6072536;23;20026;-91
2022/07/05 06:28:09;;;;;;;21.25;12.10;;;;;;;22.45;57.56;93662.56;6074947;23;20079;-93
2022/07/05 06:30:37;;;;;;;47.00;25.60;;;;;;;22.45;57.54;93668.09;6029351;23;20122;-93
2022/07/05 06:33:12;;;;;;;62.22;30.30;;;;;;;22.53;57.42;93666.16;6052989;23;20384;-92
2022/07/05 06:35:38;;;;;;;58.13;27.25;;;;;;;22.53;57.44;93659.91;6027755;23;20747;-94
2022/07/05 06:38:06;;;;;;;64.68;31.23;;;;;;;22.44;57.59;93666.59;6104015;23;20022;-94
2022/07/05 06:40:59;;;;;;;65.53;29.92;;;;;;;22.50;57.25;93664.47;6118980;23;20029;-95
2022/07/05 06:43:29;;;;;;;35.65;19.52;;;;;;;22.50;57.59;93663.75;5999227;23;20038;-94
2022/07/05 06:45:55;;;;;;;41.70;14.68;;;;;;;22.52;57.81;93669.44;6034199;23;20026;-91
2022/07/05 06:48:21;;;;;;;24.33;11.93;;;;;;;22.44;57.72;93666.59;6105668;23;20043;-93
2022/07/05 06:50:46;;;;;;;22.88;9.98;;;;;;;22.42;57.94;93665.66;6138983;23;20566;-92
2022/07/05 06:53:30;;;;;;;17.95;8.25;;;;;;;22.32;58.26;93659.81;6164526;23;20021;-92
2022/07/05 06:55:56;;;;;;;13.55;7.35;;;;;;;22.38;58.54;93660.44;6167621;23;20021;-92
2022/07/05 06:58:22;;;;;;;24.80;8.48;;;;;;;22.39;58.76;93661.19;6137229;23;20051;-93
2022/07/05 07:00:49;;;;;;;18.33;11.15;;;;;;;22.31;58.81;93655.56;6138566;23;20020;-92
2022/07/05 07:03:15;;;;;;;15.40;9.40;;;;;;;22.27;58.99;93659.94;6111921;23;20032;-94
2022/07/05 07:05:43;;;;;;;15.40;8.50;;;;;;;22.19;59.03;93671.59;6065290;23;20029;-93
2022/07/05 07:10:55;;;;;;;61.75;20.35;;;;;;;22.30;59.15;93665.09;6133058;23;20025;-93
2022/07/05 07:13:21;;;;;;;90.75;39.35;;;;;;;22.27;59.06;93679.22;6125353;23;20017;-91
2022/07/05 07:15:47;;;;;;;106.90;48.85;;;;;;;22.33;59.05;93669.56;6102514;23;20563;-92
2022/07/05 07:18:27;;;;;;;109.10;52.05;;;;;;;22.30;59.00;93683.66;6038867;23;20025;-92
2022/07/05 07:20:52;;;;;;;70.68;34.67;;;;;;;22.41;58.61;93683.44;6052857;23;20023;-92
2022/07/05 07:24:07;;;;;;;36.55;18.65;;;;;;;22.32;58.61;93681.09;6000100;23;20047;-92
2022/07/05 07:27:02;;;;;;;41.95;20.90;;;;;;;22.38;58.47;93687.25;6037532;23;20034;-92
2022/07/05 07:29:19;;;;;;;74.35;26.30;;;;;;;22.34;58.49;93689.59;6048377;23;20031;-92
2022/07/05 07:31:45;;;;;;;46.85;26.42;;;;;;;22.21;58.72;93693.81;6017983;23;20026;-90
2022/07/05 07:34:18;;;;;;;42.03;19.02;;;;;;;22.28;58.63;93697.97;6006426;23;20019;-89
2022/07/05 07:36:43;;;;;;;40.50;16.77;;;;;;;22.35;58.56;93702.81;6045395;23;20027;-92
2022/07/05 07:39:12;;;;;;;31.63;13.38;;;;;;;22.37;58.58;93699.53;6027501;23;20072;-92
2022/07/05 07:41:46;;;;;;;47.45;15.30;;;;;;;22.25;58.91;93699.03;6073295;23;20030;-91
2022/07/05 07:44:18;;;;;;;23.25;11.63;;;;;;;22.26;58.83;93703.25;6084939;23;20021;-93
2022/07/05 07:47:04;;;;;;;31.33;12.50;;;;;;;22.32;58.87;93703.13;6055645;23;20027;-91
2022/07/05 07:49:29;;;;;;;20.50;10.50;;;;;;;22.31;58.89;93702.41;6071053;23;20031;-92
2022/07/05 07:51:56;;;;;;;19.95;10.02;;;;;;;22.32;58.94;93709.38;6061354;23;20030;-93
2022/07/05 07:54:24;;;;;;;15.98;9.02;;;;;;;22.23;59.22;93710.56;6181992;23;20021;-91
2022/07/05 07:56:50;;;;;;;19.98;8.25;;;;;;;22.19;59.42;93703.88;6140365;23;20021;-91
2022/07/05 07:59:16;;;;;;;19.88;9.95;;;;;;;22.19;59.45;93704.63;6083658;23;20690;-94
2022/07/05 08:01:41;;;;;;;73.07;20.35;;;;;;;22.20;59.27;93711.63;6162304;23;20077;-92
2022/07/05 08:04:07;;;;;;;64.15;22.92;;;;;;;22.17;59.21;93703.66;6111144;23;20040;-93
2022/07/05 08:06:32;;;;;;;52.10;20.20;;;;;;;22.22;59.13;93706.34;6133161;23;20072;-92
2022/07/05 08:08:58;;;;;;;49.28;20.52;;;;;;;22.26;59.16;93711.53;6107353;23;20878;-90
2022/07/05 08:11:24;;;;;;;64.45;34.42;;;;;;;22.20;59.91;93708.13;6104393;23;20083;-92
2022/07/05 08:13:50;;;;;;;76.50;37.40;;;;;;;22.21;59.61;93715.13;6134074;23;20024;-92
2022/07/05 08:16:15;;;;;;;101.38;50.63;;;;;;;22.23;59.57;93720.84;6108849;23;20027;-92
2022/07/05 08:21:31;;;;;;;100.35;46.63;;;;;;;22.32;59.77;93720.41;6138142;23;20677;-92
2022/07/05 08:24:02;;;;;;;84.47;40.33;;;;;;;22.39;59.78;93719.03;6111538;23;20048;-92
2022/07/05 08:26:30;;;;;;;58.33;29.13;;;;;;;22.35;60.43;93711.09;6109920;23;20096;-91
2022/07/05 08:29:01;;;;;;;41.65;21.90;;;;;;;22.37;60.62;93722.31;6111563;23;20048;-91
2022/07/05 08:31:31;;;;;;;57.03;30.38;;;;;;;22.34;60.87;93720.63;6113580;23;20092;-92
2022/07/05 08:33:56;;;;;;;63.10;31.67;;;;;;;22.34;61.02;93722.63;6087196;23;20068;-92
2022/07/05 08:36:23;;;;;;;42.75;23.63;;;;;;;22.36;60.90;93717.34;6126503;23;20013;-90
2022/07/05 08:38:52;;;;;;;43.33;22.30;;;;;;;22.36;61.02;93720.84;6097047;23;20021;-91
2022/07/05 08:41:19;;;;;;;34.63;19.98;;;;;;;22.35;60.90;93724.84;6158742;23;20039;-91
2022/07/05 08:43:45;;;;;;;45.30;21.70;;;;;;;22.39;60.46;93719.78;6107689;23;20100;-92
2022/07/05 08:46:11;;;;;;;61.55;26.15;;;;;;;22.34;60.37;93719.88;6109026;23;20025;-91
2022/07/05 08:48:44;;;;;;;54.58;26.33;;;;;;;22.33;60.42;93726.66;6138376;23;20357;-91
2022/07/05 08:51:23;;;;;;;48.33;22.52;;;;;;;22.36;60.49;93720.09;6138350;23;20017;-92
2022/07/05 08:53:50;;;;;;;68.47;25.73;;;;;;;22.42;59.85;93720.75;6133943;23;20029;-92
2022/07/05 08:56:16;;;;;;;54.83;27.15;;;;;;;22.38;60.20;93712.03;6159425;23;20017;-93
2022/07/05 08:58:42;;;;;;;55.55;27.27;;;;;;;22.34;60.32;93715.13;6123880;23;20017;-92
2022/07/05 09:01:09;;;;;;;39.72;19.55;;;;;;;22.34;60.35;93717.88;6135373;23;20075;-92
2022/07/05 09:03:41;;;;;;;53.28;21.52;;;;;;;22.42;60.32;93717.97;6136582;23;20024;-91
2022/07/05 09:06:12;;;;;;;40.60;19.98;;;;;;;22.39;60.36;93710.78;6146104;23;20021;-91
2022/07/05 09:08:41;;;;;;;44.13;20.77;;;;;;;22.41;60.34;93708.97;6159265;23;20591;-91
2022/07/05 09:11:10;;;;;;;49.60;25.13;;;;;;;22.37;60.66;93710.56;6147111;23;20052;-92
2022/07/05 09:13:40;;;;;;;42.47;20.40;;;;;;;22.42;60.56;93715.97;6137487;23;20020;-91
2022/07/05 09:16:05;;;;;;;46.30;21.50;;;;;;;22.39;60.51;93719.78;6124912;23;20013;-93
2022/07/05 09:19:00;;;;;;;49.60;20.52;;;;;;;22.44;60.38;93718.94;6133565;23;20017;-93
2022/07/05 09:21:27;;;;;;;42.03;21.08;;;;;;;22.37;60.87;93707.81;6157573;23;20017;-92
2022/07/05 09:23:57;;;;;;;42.40;17.52;;;;;;;22.34;60.72;93706.09;6133100;23;20028;-92
2022/07/05 09:27:06;;;;;;;46.60;21.27;;;;;;;22.40;60.65;93709.50;6082300;23;20098;-93
2022/07/05 09:29:42;;;;;;;57.00;23.95;;;;;;;22.38;60.64;93712.03;6212898;22;20080;-92
2022/07/05 09:32:09;;;;;;;94.15;33.10;;;;;;;22.46;60.10;93710.16;6100398;23;20029;-92
2022/07/05 09:34:37;;;;;;;70.57;26.45;;;;;;;22.40;60.30;93709.50;6054388;23;20033;-93
2022/07/05 09:37:03;;;;;;;49.40;21.83;;;;;;;22.42;60.22;93712.47;6046917;23;20505;-93
2022/07/05 09:39:28;;;;;;;45.33;22.02;;;;;;;22.40;60.07;93710.25;6098699;23;20019;-92
2022/07/05 09:42:20;;;;;;;53.53;28.23;;;;;;;22.52;59.65;93705.25;6098666;23;20037;-92
2022/07/05 09:44:59;;;;;;;42.15;23.10;;;;;;;22.53;59.49;93713.00;6100541;23;20033;-93
2022/07/05 09:47:34;;;;;;;59.17;22.65;;;;;;;22.55;58.90;93713.19;6028363;23;20022;-93
2022/07/05 09:50:03;;;;;;;49.15;21.90;;;;;;;22.47;59.09;93700.63;6082506;23;20078;-93
2022/07/05 09:52:31;;;;;;;45.72;19.73;;;;;;;22.53;58.80;93712.25;6080432;23;20025;-92
2022/07/05 09:55:02;;;;;;;36.33;17.45;;;;;;;22.50;58.50;93714.06;6077605;23;20026;-92
2022/07/05 09:57:28;;;;;;;31.67;16.02;;;;;;;22.47;58.31;93715.13;6178782;23;20032;-94
2022/07/05 10:00:19;;;;;;;34.05;16.73;;;;;;;22.56;58.56;93711.19;6098112;23;20021;-92
2022/07/05 10:02:51;;;;;;;40.30;17.17;;;;;;;22.54;58.53;93708.97;6161245;23;20025;-92
2022/07/05 10:05:18;;;;;;;24.15;12.82;;;;;;;22.49;58.38;93711.84;6161373;23;20024;-91
2022/07/05 10:07:46;;;;;;;30.65;13.02;;;;;;;22.53;58.47;93715.75;6175513;23;20099;-95
2022/07/05 10:10:22;;;;;;;24.67;13.02;;;;;;;22.56;58.59;93713.94;6173723;23;20539;-91
2022/07/05 10:12:49;;;;;;;28.23;13.57;;;;;;;22.54;58.64;93719.25;6199943;23;20099;-92
2022/07/05 10:15:18;;;;;;;22.63;11.45;;;;;;;22.50;58.20;93714.06;6170943;23;20074;-93
2022/07/05 10:18:16;;;;;;;19.77;10.73;;;;;;;22.64;57.85;93714.78;6158936;23;20016;-93
2022/07/05 10:20:43;;;;;;;20.27;12.38;;;;;;;22.67;58.28;93704.72;6209718;23;20024;-93
2022/07/05 10:23:18;;;;;;;18.50;14.20;;;;;;;22.63;58.56;93705.03;6168804;23;20023;-92
2022/07/05 10:25:48;;;;;;;16.85;13.00;;;;;;;22.63;58.81;93709.81;6166716;23;20099;-92
2022/07/05 10:28:13;;;;;;;15.68;12.93;;;;;;;22.60;58.94;93711.63;6127953;23;20262;-93
2022/07/05 10:30:45;;;;;;;11.35;10.05;;;;;;;22.66;59.15;93717.75;6137095;23;20043;-92
2022/07/05 10:33:27;;;;;;;13.48;9.90;;;;;;;22.68;59.03;93711.72;6161994;23;20047;-93
2022/07/05 10:35:53;;;;;;;12.18;9.73;;;;;;;22.75;58.01;93705.53;6150468;23;20012;-93
2022/07/05 10:38:18;;;;;;;50.35;38.42;;;;;;;22.74;58.26;93704.06;6201128;23;20024;-93
2022/07/05 10:40:50;;;;;;;16.23;14.45;;;;;;;22.78;58.06;93712.78;6169145;23;20007;-91
2022/07/05 10:43:16;;;;;;;15.25;12.90;;;;;;;22.75;58.53;93692.50;6192612;22;20020;-92
2022/07/05 10:45:49;;;;;;;14.05;12.65;;;;;;;22.72;58.49;93703.88;6176994;23;20039;-92
2022/07/05 10:51:44;;;;;;;14.02;12.63;;;;;;;22.76;57.81;93705.00;6192171;23;20033;-91
2022/07/05 10:54:16;;;;;;;20.65;14.27;;;;;;;22.77;57.48;93708.50;6094698;23;20025;-94
2022/07/05 11:04:04;;;;;;;75.85;31.85;;;;;;;22.80;57.64;93696.47;6249908;22;20032;-95
2022/07/05 11:06:49;;;;;;;89.72;46.53;;;;;;;22.84;57.48;93685.84;6166708;23;20017;-94
2022/07/05 11:09:21;;;;;;;79.72;41.00;;;;;;;22.88;57.60;93687.00;6083183;23;20032;-95
2022/07/05 11:14:29;;;;;;;129.88;58.13;;;;;;;22.91;57.19;93674.19;6189416;23;20097;-94
2022/07/05 11:17:32;;;;;;;129.50;61.72;;;;;;;22.86;57.11;93675.03;6232446;23;20029;-93
2022/07/05 11:20:01;;;;;;;179.00;63.67;;;;;;;22.96;56.81;93672.56;6167226;23;20056;-92
2022/07/05 11:22:30;;;;;;;145.05;62.13;;;;;;;23.00;56.87;93668.19;6088611;23;20020;-93
2022/07/05 11:25:34;;;;;;;97.88;49.60;;;;;;;23.01;57.12;93674.47;6037427;23;20009;-92
2022/07/05 11:28:25;;;;;;;95.97;44.35;;;;;;;22.99;57.16;93665.97;6101837;23;20036;-93
2022/07/05 11:31:05;;;;;;;76.35;36.80;;;;;;;22.95;57.08;93668.34;6049818;23;20058;-93
2022/07/05 11:33:58;;;;;;;84.57;43.28;;;;;;;23.00;56.91;93673.72;6106194;23;20236;-94
2022/07/05 11:36:27;;;;;;;81.53;41.83;;;;;;;23.01;56.60;93661.41;6124420;23;20028;-93
2022/07/05 11:39:33;;;;;;;110.00;41.97;;;;;;;22.98;56.96;93661.75;6207176;23;20047;-94
2022/07/05 11:42:19;;;;;;;93.97;36.38;;;;;;;22.97;56.92;93654.75;6200751;23;20024;-93
2022/07/05 11:44:52;;;;;;;65.40;32.03;;;;;;;23.01;56.66;93661.41;6146323;23;20028;-91
2022/07/05 11:52:51;;;;;;;55.90;29.05;;;;;;;23.01;56.45;93658.66;6209292;22;20004;-92
2022/07/05 11:55:28;;;;;;;45.67;24.90;;;;;;;23.07;56.02;93664.78;6029681;23;20084;-93
2022/07/05 11:58:42;;;;;;;54.17;26.85;;;;;;;23.04;56.44;93665.84;6047113;23;20061;-95
2022/07/05 12:01:42;;;;;;;63.72;27.90;;;;;;;23.04;56.34;93660.34;6092190;22;20021;-93
2022/07/05 12:12:55;;;;;;;71.85;29.27;;;;;;;23.11;55.71;93678.25;6176515;23;20011;-91
2022/07/05 12:18:15;;;;;;;114.72;33.58;;;;;;;23.14;55.42;93680.69;6210878;22;20028;-93
2022/07/05 12:20:57;;;;;;;138.43;36.72;;;;;;;23.13;55.38;93684.72;6094232;23;20026;-94
2022/07/05 12:23:33;;;;;;;45.97;19.98;;;;;;;23.09;55.21;93691.84;6052946;23;20366;-95
2022/07/05 12:26:01;;;;;;;36.10;16.35;;;;;;;23.06;54.68;93681.88;6084770;23;20018;-94
2022/07/05 12:28:49;;;;;;;36.45;15.27;;;;;;;23.01;54.48;93688.25;6064770;23;20085;-94
2022/07/05 12:31:24;;;;;;;39.78;17.95;;;;;;;22.96;53.60;93687.09;6036149;23;20073;-94
2022/07/05 12:33:50;;;;;;;32.30;13.93;;;;;;;22.94;52.43;93684.16;6058391;23;20033;-94
2022/07/05 12:36:36;;;;;;;69.53;38.40;;;;;;;22.99;52.79;93686.03;6108932;23;20070;-93
2022/07/05 12:39:03;;;;;;;36.85;21.45;;;;;;;22.99;52.78;93693.56;6086099;23;20062;-89
2022/07/05 12:41:29;;;;;;;24.08;11.52;;;;;;;22.93;52.73;93687.44;6093721;23;20096;-92
2022/07/05 12:43:55;;;;;;;16.23;9.93;;;;;;;22.84;52.61;93691.38;6072838;23;20022;-91
2022/07/05 12:46:26;;;;;;;17.10;9.93;;;;;;;22.79;52.21;93692.97;6096541;23;20026;-91
2022/07/05 12:48:57;;;;;;;10.05;9.02;;;;;;;22.77;52.25;93691.97;6060368;23;20018;-92
2022/07/05 12:58:02;;;;;;;55.20;19.02;;;;;;;22.70;51.71;93709.91;6026821;23;20034;-92
2022/07/05 13:00:29;;;;;;;143.00;27.00;;;;;;;22.78;51.65;93712.78;6001481;23;20052;-92
2022/07/05 13:02:55;;;;;;;65.88;20.77;;;;;;;22.80;51.87;93704.72;6011270;23;20027;-92
2022/07/05 13:05:22;;;;;;;66.10;23.77;;;;;;;22.78;52.07;93701.75;5992518;23;20102;-92
2022/07/05 13:07:50;;;;;;;61.17;26.75;;;;;;;22.79;52.32;93698.47;6019410;23;20099;-92